createdAt,value
2022-08-20T00:02:09.880Z,17.21
2022-08-20T00:04:36.951Z,17.24
2022-08-20T00:07:06.561Z,17.26
2022-08-20T00:09:36.857Z,17.24
2022-08-20T00:12:07.604Z,17.20
2022-08-20T00:14:35.218Z,17.25
2022-08-20T00:17:05.533Z,17.24
2022-08-20T00:19:31.963Z,17.26
2022-08-20T00:21:58.689Z,17.28
2022-08-20T00:24:25.905Z,17.26
2022-08-20T00:26:53.005Z,17.31
2022-08-20T00:29:20.616Z,17.33
2022-08-20T00:31:50.411Z,17.33
2022-08-20T00:34:22.864Z,17.36
2022-08-20T00:36:49.509Z,17.32
2022-08-20T00:39:19.019Z,17.22
2022-08-20T00:41:45.944Z,17.31
2022-08-20T00:44:22.653Z,17.32
2022-08-20T00:46:51.013Z,17.37
2022-08-20T00:49:24.941Z,17.38
2022-08-20T00:52:02.723Z,17.35
2022-08-20T00:54:34.498Z,17.26
2022-08-20T00:57:29.397Z,17.27
2022-08-20T01:00:24.454Z,17.30
2022-08-20T01:05:31.999Z,17.24
2022-08-20T01:08:26.801Z,17.18
2022-08-20T01:11:47.289Z,17.21
2022-08-20T01:14:33.521Z,17.19
2022-08-20T01:17:06.221Z,17.26
2022-08-20T01:19:43.143Z,17.19
2022-08-20T01:22:29.104Z,17.18
2022-08-20T01:25:05.982Z,17.19
2022-08-20T01:27:33.671Z,17.17
2022-08-20T01:30:10.007Z,17.11
2022-08-20T01:32:36.567Z,17.15
2022-08-20T01:35:04.620Z,17.18
2022-08-20T01:37:31.529Z,17.20
2022-08-20T01:39:58.655Z,17.21
2022-08-20T01:42:37.893Z,17.28
2022-08-20T01:45:26.949Z,17.12
2022-08-20T01:47:54.485Z,17.09
2022-08-20T01:50:26.008Z,17.14
2022-08-20T01:53:01.529Z,17.19
2022-08-20T01:55:28.202Z,17.17
2022-08-20T01:57:55.252Z,17.22
2022-08-20T02:00:22.790Z,17.23
2022-08-20T02:02:49.951Z,17.18
2022-08-20T02:05:18.006Z,17.28
2022-08-20T02:07:44.482Z,17.22
2022-08-20T02:10:15.036Z,17.17
2022-08-20T02:12:41.690Z,17.26
2022-08-20T02:15:11.161Z,17.26
2022-08-20T02:17:39.214Z,17.25
2022-08-20T02:20:13.899Z,17.24
2022-08-20T02:22:50.094Z,17.25
2022-08-20T02:25:19.584Z,17.25
2022-08-20T02:27:48.694Z,17.17
2022-08-20T02:30:28.348Z,17.21
2022-08-20T02:32:56.926Z,17.16
2022-08-20T02:35:25.104Z,17.17
2022-08-20T02:37:52.736Z,17.17
2022-08-20T02:40:30.435Z,17.12
2022-08-20T02:43:01.684Z,17.04
2022-08-20T02:45:30.197Z,17.14
2022-08-20T02:47:57.629Z,17.17
2022-08-20T02:50:26.041Z,17.19
2022-08-20T02:52:53.072Z,17.18
2022-08-20T02:55:27.384Z,17.12
2022-08-20T02:57:58.662Z,17.21
2022-08-20T03:00:27.346Z,17.18
2022-08-20T03:02:53.924Z,17.19
2022-08-20T03:05:20.529Z,17.21
2022-08-20T03:07:49.928Z,17.26
2022-08-20T03:10:17.189Z,17.23
2022-08-20T03:12:43.782Z,17.19
2022-08-20T03:15:17.164Z,17.18
2022-08-20T03:17:44.832Z,17.18
2022-08-20T03:20:15.534Z,17.14
2022-08-20T03:22:42.427Z,17.12
2022-08-20T03:25:09.915Z,17.09
2022-08-20T03:27:36.769Z,17.18
2022-08-20T03:30:05.881Z,17.14
2022-08-20T03:32:32.568Z,17.18
2022-08-20T03:34:59.097Z,17.12
2022-08-20T03:37:28.877Z,17.19
2022-08-20T03:39:55.342Z,17.09
2022-08-20T03:42:21.916Z,17.18
2022-08-20T03:44:49.136Z,17.24
2022-08-20T03:47:25.662Z,17.11
2022-08-20T03:49:52.201Z,17.12
2022-08-20T03:52:19.556Z,17.07
2022-08-20T03:54:46.191Z,17.08
2022-08-20T03:57:15.063Z,17.11
2022-08-20T03:59:55.135Z,17.15
2022-08-20T04:02:26.045Z,17.16
2022-08-20T04:04:52.609Z,17.18
2022-08-20T04:07:25.618Z,17.12
2022-08-20T04:09:53.382Z,17.11
2022-08-20T04:12:19.944Z,17.13
2022-08-20T04:14:47.665Z,17.19
2022-08-20T04:17:14.835Z,17.15
2022-08-20T04:19:41.692Z,17.13
2022-08-20T04:22:08.596Z,17.09
2022-08-20T04:24:35.387Z,17.17
2022-08-20T04:27:05.399Z,17.17
2022-08-20T04:29:35.218Z,17.14
2022-08-20T04:32:03.385Z,17.19
2022-08-20T04:34:33.181Z,17.17
2022-08-20T04:36:59.653Z,17.14
2022-08-20T04:39:26.816Z,17.11
2022-08-20T04:41:53.320Z,17.12
2022-08-20T04:44:21.747Z,17.09
2022-08-20T04:46:48.663Z,17.20
2022-08-20T04:49:15.284Z,17.29
2022-08-20T04:51:41.772Z,17.26
2022-08-20T04:54:08.291Z,17.19
2022-08-20T04:56:39.744Z,17.20
2022-08-20T04:59:07.382Z,17.22
2022-08-20T05:01:35.032Z,17.18
2022-08-20T05:04:01.769Z,17.22
2022-08-20T05:06:31.157Z,17.21
2022-08-20T05:09:00.323Z,17.23
2022-08-20T05:11:35.210Z,17.31
2022-08-20T05:14:05.307Z,17.28
2022-08-20T05:16:37.912Z,17.36
2022-08-20T05:19:07.479Z,17.31
2022-08-20T05:21:34.581Z,17.30
2022-08-20T05:24:02.981Z,17.39
2022-08-20T05:26:32.720Z,17.33
2022-08-20T05:29:02.745Z,17.30
2022-08-20T05:31:32.436Z,17.34
2022-08-20T05:34:13.108Z,17.26
2022-08-20T05:36:49.644Z,17.36
2022-08-20T05:39:21.279Z,17.31
2022-08-20T05:41:54.057Z,17.39
2022-08-20T05:44:20.893Z,17.40
2022-08-20T05:46:48.326Z,17.40
2022-08-20T05:49:20.939Z,17.40
2022-08-20T05:51:49.443Z,17.50
2022-08-20T05:54:16.268Z,17.60
2022-08-20T05:56:42.933Z,17.67
2022-08-20T05:59:10.897Z,17.67
2022-08-20T06:01:39.383Z,17.70
2022-08-20T06:04:25.268Z,17.68
2022-08-20T06:06:53.787Z,17.72
2022-08-20T06:09:28.704Z,17.79
2022-08-20T06:11:59.702Z,17.82
2022-08-20T06:14:26.734Z,17.78
2022-08-20T06:16:57.654Z,17.85
2022-08-20T06:19:32.309Z,17.99
2022-08-20T06:22:00.622Z,18.07
2022-08-20T06:24:27.555Z,18.20
2022-08-20T06:27:02.688Z,18.28
2022-08-20T06:29:30.327Z,18.37
2022-08-20T06:31:57.534Z,18.43
2022-08-20T06:34:28.390Z,18.58
2022-08-20T06:37:02.500Z,18.58
2022-08-20T06:39:31.833Z,18.60
2022-08-20T06:42:01.619Z,18.81
2022-08-20T06:44:28.483Z,19.01
2022-08-20T06:47:01.253Z,19.23
2022-08-20T06:49:27.959Z,19.38
2022-08-20T06:52:02.387Z,19.58
2022-08-20T06:54:29.419Z,19.74
2022-08-20T06:56:56.529Z,19.85
2022-08-20T06:59:28.747Z,20.00
2022-08-20T07:01:56.715Z,20.03
2022-08-20T07:04:26.028Z,20.08
2022-08-20T07:07:03.216Z,20.15
2022-08-20T07:09:29.954Z,20.15
2022-08-20T07:11:56.817Z,19.99
2022-08-20T07:14:23.741Z,20.21
2022-08-20T07:16:50.625Z,20.08
2022-08-20T07:19:19.940Z,20.11
2022-08-20T07:21:49.926Z,20.17
2022-08-20T07:24:16.749Z,20.19
2022-08-20T07:26:43.829Z,20.48
2022-08-20T07:29:10.559Z,20.54
2022-08-20T07:31:58.051Z,20.65
2022-08-20T07:34:24.713Z,20.96
2022-08-20T07:36:53.897Z,21.32
2022-08-20T07:39:24.393Z,21.36
2022-08-20T07:42:03.183Z,21.62
2022-08-20T07:44:31.193Z,21.55
2022-08-20T07:47:01.366Z,21.52
2022-08-20T07:49:32.275Z,21.30
2022-08-20T07:51:59.078Z,21.64
2022-08-20T07:54:27.196Z,21.71
2022-08-20T07:57:03.418Z,22.00
2022-08-20T07:59:33.790Z,22.09
2022-08-20T08:02:03.078Z,22.13
2022-08-20T08:04:29.875Z,22.17
2022-08-20T08:07:00.199Z,22.13
2022-08-20T08:09:28.352Z,22.22
2022-08-20T08:12:00.012Z,22.25
2022-08-20T08:14:29.773Z,22.38
2022-08-20T08:17:02.426Z,22.52
2022-08-20T08:19:36.266Z,22.53
2022-08-20T08:22:03.828Z,22.41
2022-08-20T08:24:33.688Z,22.45
2022-08-20T08:27:00.689Z,22.50
2022-08-20T08:29:27.559Z,22.65
2022-08-20T08:31:54.309Z,22.76
2022-08-20T08:34:21.114Z,22.74
2022-08-20T08:36:47.858Z,22.69
2022-08-20T08:39:14.691Z,22.54
2022-08-20T08:41:48.550Z,22.66
2022-08-20T08:44:41.783Z,22.45
2022-08-20T08:47:18.760Z,22.65
2022-08-20T08:49:47.629Z,22.63
2022-08-20T08:52:37.469Z,22.68
2022-08-20T08:55:10.214Z,22.57
2022-08-20T08:57:41.550Z,22.51
2022-08-20T09:00:18.423Z,22.27
2022-08-20T09:03:17.285Z,22.12
2022-08-20T09:05:50.758Z,22.22
2022-08-20T09:08:25.647Z,22.22
2022-08-20T09:10:52.391Z,22.55
2022-08-20T09:13:19.373Z,22.68
2022-08-20T09:15:46.398Z,22.54
2022-08-20T09:18:13.280Z,22.66
2022-08-20T09:20:43.145Z,22.64
2022-08-20T09:23:09.934Z,22.60
2022-08-20T09:25:36.941Z,22.87
2022-08-20T09:28:06.246Z,23.13
2022-08-20T09:30:33.021Z,23.37
2022-08-20T09:33:00.635Z,23.67
2022-08-20T09:35:30.895Z,23.11
2022-08-20T09:37:57.672Z,23.55
2022-08-20T09:40:28.776Z,23.63
2022-08-20T09:43:01.020Z,23.70
2022-08-20T09:45:34.450Z,23.13
2022-08-20T09:48:01.181Z,23.42
2022-08-20T09:50:30.491Z,23.22
2022-08-20T09:52:59.679Z,23.16
2022-08-20T09:55:34.394Z,23.40
2022-08-20T09:58:16.994Z,24.01
2022-08-20T10:00:45.862Z,24.80
2022-08-20T10:03:12.842Z,25.07
2022-08-20T10:05:39.645Z,25.36
2022-08-20T10:08:09.085Z,25.24
2022-08-20T10:10:36.235Z,25.42
2022-08-20T10:13:03.495Z,24.96
2022-08-20T10:15:31.187Z,24.39
2022-08-20T10:17:58.174Z,24.74
2022-08-20T10:20:25.791Z,24.72
2022-08-20T10:22:52.398Z,24.98
2022-08-20T10:25:23.464Z,24.83
2022-08-20T10:27:50.206Z,24.29
2022-08-20T10:30:17.493Z,24.43
2022-08-20T10:32:44.179Z,24.83
2022-08-20T10:35:10.809Z,24.92
2022-08-20T10:37:39.603Z,24.76
2022-08-20T10:40:07.678Z,24.89
2022-08-20T10:42:56.416Z,25.17
2022-08-20T10:45:26.234Z,25.49
2022-08-20T10:47:53.067Z,25.67
2022-08-20T10:50:20.200Z,25.64
2022-08-20T10:52:49.855Z,25.91
2022-08-20T10:55:18.190Z,26.17
2022-08-20T10:57:48.861Z,26.23
2022-08-20T11:00:21.462Z,26.42
2022-08-20T11:02:48.185Z,26.65
2022-08-20T11:05:15.074Z,26.66
2022-08-20T11:07:55.109Z,26.39
2022-08-20T11:10:27.458Z,26.24
2022-08-20T11:12:54.494Z,26.51
2022-08-20T11:15:21.599Z,26.67
2022-08-20T11:17:48.470Z,26.58
2022-08-20T11:20:40.039Z,27.10
2022-08-20T11:23:23.347Z,27.43
2022-08-20T11:25:51.575Z,27.70
2022-08-20T11:28:31.079Z,27.62
2022-08-20T11:31:07.135Z,27.40
2022-08-20T11:33:36.738Z,27.03
2022-08-20T11:36:03.319Z,26.54
2022-08-20T11:38:34.096Z,26.07
2022-08-20T11:41:00.781Z,25.80
2022-08-20T11:43:30.092Z,25.40
2022-08-20T11:45:57.766Z,25.55
2022-08-20T11:48:24.592Z,25.59
2022-08-20T11:50:51.323Z,25.65
2022-08-20T11:53:31.649Z,25.81
2022-08-20T11:56:00.297Z,25.97
2022-08-20T11:58:29.584Z,26.19
2022-08-20T12:01:04.936Z,26.42
2022-08-20T12:03:34.312Z,26.63
2022-08-20T12:06:04.054Z,26.69
2022-08-20T12:08:33.659Z,26.73
2022-08-20T12:11:09.928Z,26.49
2022-08-20T12:13:49.249Z,26.79
2022-08-20T12:16:19.554Z,26.97
2022-08-20T12:18:47.047Z,26.81
2022-08-20T12:21:14.162Z,26.93
2022-08-20T12:23:43.801Z,27.08
2022-08-20T12:26:12.316Z,27.00
2022-08-20T12:28:39.137Z,27.04
2022-08-20T12:31:05.971Z,27.25
2022-08-20T12:33:39.095Z,27.40
2022-08-20T12:36:06.230Z,27.39
2022-08-20T12:38:36.207Z,26.86
2022-08-20T12:41:06.044Z,26.53
2022-08-20T12:43:36.204Z,26.34
2022-08-20T12:46:05.476Z,26.53
2022-08-20T12:48:42.601Z,25.94
2022-08-20T12:51:10.210Z,26.09
2022-08-20T12:53:40.285Z,26.10
2022-08-20T12:56:07.278Z,26.11
2022-08-20T12:58:34.834Z,25.87
2022-08-20T13:01:01.754Z,25.70
2022-08-20T13:03:28.929Z,25.21
2022-08-20T13:06:17.256Z,25.12
2022-08-20T13:08:49.564Z,25.40
2022-08-20T13:11:16.389Z,25.41
2022-08-20T13:13:43.645Z,25.05
2022-08-20T13:16:10.267Z,25.16
2022-08-20T13:18:41.789Z,25.15
2022-08-20T13:21:11.228Z,25.14
2022-08-20T13:23:38.075Z,25.28
2022-08-20T13:26:05.238Z,25.51
2022-08-20T13:28:32.060Z,25.73
2022-08-20T13:30:58.799Z,26.20
2022-08-20T13:33:26.633Z,26.38
2022-08-20T13:35:53.276Z,26.89
2022-08-20T13:38:20.021Z,27.51
2022-08-20T13:40:48.836Z,27.88
2022-08-20T13:43:16.124Z,28.26
2022-08-20T13:45:42.786Z,28.23
2022-08-20T13:48:15.108Z,28.25
2022-08-20T13:50:42.568Z,27.95
2022-08-20T13:53:09.156Z,27.51
2022-08-20T13:55:39.129Z,27.47
2022-08-20T13:58:07.556Z,27.60
2022-08-20T14:00:38.926Z,27.36
2022-08-20T14:03:06.985Z,27.32
2022-08-20T14:05:44.291Z,27.41
2022-08-20T14:08:17.380Z,26.75
2022-08-20T14:10:51.488Z,26.77
2022-08-20T14:13:23.201Z,26.96
2022-08-20T14:15:50.118Z,26.90
2022-08-20T14:18:17.739Z,26.89
2022-08-20T14:20:46.957Z,26.63
2022-08-20T14:23:14.950Z,26.39
2022-08-20T14:25:46.041Z,26.63
2022-08-20T14:28:18.429Z,26.35
2022-08-20T14:30:48.681Z,25.84
2022-08-20T14:33:28.993Z,25.97
2022-08-20T14:35:58.805Z,25.82
2022-08-20T14:38:25.657Z,25.59
2022-08-20T14:40:55.771Z,26.04
2022-08-20T14:43:23.755Z,26.35
2022-08-20T14:45:55.573Z,26.41
2022-08-20T14:48:26.764Z,26.06
2022-08-20T14:51:02.916Z,26.47
2022-08-20T14:53:40.588Z,26.74
2022-08-20T14:56:11.242Z,26.42
2022-08-20T14:58:43.096Z,26.30
2022-08-20T15:01:25.459Z,26.63
2022-08-20T15:03:55.015Z,26.27
2022-08-20T15:06:22.543Z,26.73
2022-08-20T15:08:51.906Z,27.07
2022-08-20T15:11:23.341Z,26.69
2022-08-20T15:13:55.242Z,26.32
2022-08-20T15:16:26.061Z,25.99
2022-08-20T15:18:59.730Z,25.89
2022-08-20T15:21:27.618Z,25.88
2022-08-20T15:23:56.109Z,25.88
2022-08-20T15:26:22.952Z,25.49
2022-08-20T15:28:55.718Z,25.39
2022-08-20T15:31:25.554Z,25.02
2022-08-20T15:33:52.250Z,24.87
2022-08-20T15:36:21.357Z,24.25
2022-08-20T15:38:47.978Z,24.15
2022-08-20T15:41:14.771Z,23.58
2022-08-20T15:43:41.452Z,23.40
2022-08-20T15:46:08.208Z,23.26
2022-08-20T15:48:48.584Z,23.06
2022-08-20T15:51:23.196Z,22.82
2022-08-20T15:54:02.691Z,22.85
2022-08-20T15:57:01.660Z,22.81
2022-08-20T15:59:59.436Z,22.89
2022-08-20T16:03:00.080Z,23.12
2022-08-20T16:05:56.563Z,23.44
2022-08-20T16:08:48.019Z,24.15
2022-08-20T16:11:28.584Z,24.19
2022-08-20T16:14:06.006Z,23.71
2022-08-20T16:16:37.344Z,23.47
2022-08-20T16:19:06.240Z,23.38
2022-08-20T16:21:39.501Z,23.33
2022-08-20T16:24:08.260Z,23.41
2022-08-20T16:26:53.539Z,23.36
2022-08-20T16:29:31.977Z,23.24
2022-08-20T16:32:13.326Z,23.19
2022-08-20T16:35:12.561Z,23.19
2022-08-20T16:37:49.336Z,23.15
2022-08-20T16:40:29.995Z,23.11
2022-08-20T16:43:02.060Z,23.11
2022-08-20T16:45:42.499Z,23.06
2022-08-20T16:48:12.546Z,23.07
2022-08-20T16:50:56.689Z,23.00
2022-08-20T16:53:31.835Z,22.99
2022-08-20T16:55:58.611Z,22.97
2022-08-20T16:58:27.811Z,23.04
2022-08-20T17:01:08.102Z,23.02
2022-08-20T17:03:43.538Z,22.98
2022-08-20T17:06:46.909Z,22.83
2022-08-20T17:09:31.727Z,22.81
2022-08-20T17:12:22.942Z,22.79
2022-08-20T17:14:59.094Z,22.58
2022-08-20T17:17:37.818Z,22.67
2022-08-20T17:20:16.315Z,22.59
2022-08-20T17:22:54.815Z,22.45
2022-08-20T17:25:31.986Z,22.46
2022-08-20T17:28:21.122Z,22.41
2022-08-20T17:30:53.635Z,22.32
2022-08-20T17:33:43.107Z,22.23
2022-08-20T17:39:14.411Z,22.24
2022-08-20T17:41:49.131Z,22.17
2022-08-20T17:44:30.268Z,22.10
2022-08-20T17:46:59.916Z,22.14
2022-08-20T17:49:41.112Z,22.04
2022-08-20T17:52:25.574Z,21.98
2022-08-20T17:55:01.519Z,21.97
2022-08-20T17:57:40.951Z,21.97
2022-08-20T18:00:16.923Z,21.86
2022-08-20T18:02:46.151Z,21.82
2022-08-20T18:05:27.326Z,21.82
2022-08-20T18:08:16.099Z,21.70
2022-08-20T18:10:55.291Z,21.59
2022-08-20T18:13:51.944Z,21.42
2022-08-20T18:16:41.998Z,21.44
2022-08-20T18:19:20.117Z,21.27
2022-08-20T18:22:25.353Z,21.26
2022-08-20T18:25:09.601Z,21.11
2022-08-20T18:27:53.051Z,21.08
2022-08-20T18:30:22.855Z,21.09
2022-08-20T18:33:03.521Z,21.06
2022-08-20T18:35:45.823Z,21.05
2022-08-20T18:38:22.717Z,20.99
2022-08-20T18:40:54.487Z,21.06
2022-08-20T18:43:30.513Z,21.03
2022-08-20T18:46:11.289Z,20.88
2022-08-20T18:48:39.507Z,20.77
2022-08-20T18:51:13.060Z,20.78
2022-08-20T18:53:48.111Z,20.72
2022-08-20T18:56:30.939Z,20.66
2022-08-20T18:59:23.725Z,20.67
2022-08-20T19:01:50.682Z,20.56
2022-08-20T19:04:37.416Z,20.40
2022-08-20T19:07:11.357Z,20.31
2022-08-20T19:10:28.138Z,20.27
2022-08-20T19:13:19.924Z,20.18
2022-08-20T19:15:55.300Z,20.20
2022-08-20T19:18:37.524Z,20.07
2022-08-20T19:21:08.908Z,19.93
2022-08-20T19:23:51.071Z,19.90
2022-08-20T19:26:25.830Z,19.95
2022-08-20T19:29:04.260Z,19.92
2022-08-20T19:31:38.064Z,19.82
2022-08-20T19:34:24.202Z,19.86
2022-08-20T19:37:27.778Z,19.85
2022-08-20T19:39:58.630Z,19.84
2022-08-20T19:42:34.084Z,19.91
2022-08-20T19:45:20.514Z,19.90
2022-08-20T19:48:03.431Z,19.86
2022-08-20T19:50:48.673Z,19.85
2022-08-20T19:53:36.205Z,19.79
2022-08-20T19:59:10.803Z,19.66
2022-08-20T20:01:40.040Z,19.64
2022-08-20T20:04:16.742Z,19.58
2022-08-20T20:06:48.523Z,19.49
2022-08-20T20:09:24.412Z,19.43
2022-08-20T20:12:00.559Z,19.27
2022-08-20T20:14:34.463Z,19.29
2022-08-20T20:17:22.423Z,19.26
2022-08-20T20:20:17.035Z,19.31
2022-08-20T20:23:16.141Z,19.30
2022-08-20T20:25:56.521Z,19.21
2022-08-20T20:28:57.040Z,19.13
2022-08-20T20:31:46.834Z,19.16
2022-08-20T20:34:23.606Z,19.21
2022-08-20T20:37:02.741Z,19.23
2022-08-20T20:39:37.044Z,19.22
2022-08-20T20:42:09.310Z,19.21
2022-08-20T20:44:48.160Z,19.22
2022-08-20T20:47:32.693Z,19.13
2022-08-20T20:50:06.089Z,19.05
2022-08-20T20:52:37.765Z,19.06
2022-08-20T20:55:37.342Z,19.16
2022-08-20T20:58:04.705Z,19.18
2022-08-20T21:00:33.083Z,19.22
2022-08-20T21:03:02.557Z,19.29
2022-08-20T21:05:30.587Z,19.30
2022-08-20T21:08:10.110Z,19.32
2022-08-20T21:10:39.637Z,19.31
2022-08-20T21:13:11.086Z,19.25
2022-08-20T21:15:39.051Z,19.26
2022-08-20T21:18:09.999Z,19.29
2022-08-20T21:20:37.361Z,19.21
2022-08-20T21:23:04.293Z,19.11
2022-08-20T21:25:33.223Z,19.13
2022-08-20T21:28:00.437Z,19.16
2022-08-20T21:30:27.825Z,19.11
2022-08-20T21:32:54.697Z,19.13
2022-08-20T21:35:31.126Z,19.03
2022-08-20T21:37:58.036Z,19.03
2022-08-20T21:40:28.446Z,18.99
2022-08-20T21:42:55.941Z,19.01
2022-08-20T21:45:22.744Z,19.01
2022-08-20T21:47:53.758Z,18.99
2022-08-20T21:50:24.537Z,18.92
2022-08-20T21:52:59.322Z,18.89
2022-08-20T21:55:29.634Z,18.83
2022-08-20T21:58:00.559Z,18.79
2022-08-20T22:00:57.664Z,18.72
2022-08-20T22:03:34.305Z,18.69
2022-08-20T22:06:06.196Z,18.58
2022-08-20T22:08:32.939Z,18.57
2022-08-20T22:11:00.294Z,18.49
2022-08-20T22:13:31.702Z,18.41
2022-08-20T22:16:00.494Z,18.39
2022-08-20T22:18:27.845Z,18.42
2022-08-20T22:20:54.552Z,18.41
2022-08-20T22:23:21.999Z,18.35
2022-08-20T22:25:48.851Z,18.24
2022-08-20T22:28:17.315Z,18.17
2022-08-20T22:30:44.501Z,18.21
2022-08-20T22:33:16.846Z,18.22
2022-08-20T22:35:51.480Z,18.09
2022-08-20T22:38:18.560Z,18.12
2022-08-20T22:40:46.310Z,18.00
2022-08-20T22:43:13.562Z,17.94
2022-08-20T22:45:43.187Z,17.99
2022-08-20T22:48:11.140Z,18.01
2022-08-20T22:50:38.386Z,17.95
2022-08-20T22:53:07.083Z,18.00
2022-08-20T22:55:33.938Z,17.95
2022-08-20T22:58:00.981Z,17.90
2022-08-20T23:00:27.824Z,17.89
2022-08-20T23:02:58.299Z,17.88
2022-08-20T23:05:30.501Z,17.78
2022-08-20T23:08:02.656Z,17.81
2022-08-20T23:10:30.717Z,17.82
2022-08-20T23:12:58.479Z,17.85
2022-08-20T23:15:27.486Z,17.81
2022-08-20T23:18:00.583Z,17.78
2022-08-20T23:20:27.538Z,17.81
2022-08-20T23:22:54.721Z,17.69
2022-08-20T23:25:22.018Z,17.73
2022-08-20T23:27:51.229Z,17.74
2022-08-20T23:30:20.107Z,17.78
2022-08-20T23:32:47.276Z,17.78
2022-08-20T23:35:14.552Z,17.78
2022-08-20T23:37:45.243Z,17.69
2022-08-20T23:40:12.952Z,17.65
2022-08-20T23:42:39.827Z,17.69
2022-08-20T23:45:07.268Z,17.71
2022-08-20T23:47:34.835Z,17.66
2022-08-20T23:50:01.796Z,17.67
2022-08-20T23:52:28.977Z,17.60
2022-08-20T23:54:55.696Z,17.60
2022-08-20T23:57:24.660Z,17.55
2022-08-20T23:59:53.009Z,17.51
